Overview Statistics Trail Chart Weather Telemetry Raw packets
 

This is the latest recevied weather packets stored in our database for station/object K4IR. If no packets are shown the sender has not sent any weather packets the latest 10 day(s).

<< 10 11 12 13 14 15 16 >>
Time Temp. Humidity Pressure Rain* Wind** Luminosity Snow
1788462036 32.22° C 60% 1017.9 hPa 0 mm - 105 W/m² -
1788461432 33.33° C 60% 1017.7 hPa 0 mm - 632 W/m² -
1788460829 32.78° C 59% 1018.1 hPa 0 mm - 647 W/m² -
1788460223 32.22° C 59% 1018.3 hPa 0 mm - 666 W/m² -
1788459619 32.22° C 62% 1018.3 hPa 0 mm - 679 W/m² -
1788459017 32.22° C 60% 1018.3 hPa 0 mm - 691 W/m² -
1788458412 32.78° C 60% 1018.3 hPa 0 mm - 701 W/m² -
1788457810 32.22° C 65% 1018.4 hPa 0 mm - 713 W/m² -
1788457206 32.78° C 63% 1018.4 hPa 0 mm - 720 W/m² -
1788456602 32.78° C 67% 1018.5 hPa 0 mm - 722 W/m² -
1788455998 32.78° C 70% 1018.6 hPa 0 mm - 724 W/m² -
1788455394 32.22° C 71% 1018.7 hPa 0 mm - 727 W/m² -
1788454788 32.22° C 71% 1018.7 hPa 0 mm - 663 W/m² -
1788454182 32.22° C 75% 1018.8 hPa 0 mm - 718 W/m² -
1788453583 31.67° C 75% 1019.1 hPa 0 mm - 229 W/m² -
1788452981 32.78° C 73% 1019 hPa 0 mm - 170 W/m² -
1788452378 33.33° C 70% 1018.9 hPa 0 mm - 224 W/m² -
1788451801 32.78° C 69% 1019 hPa 0 mm - 762 W/m² -
1788451173 32.22° C 69% 1018.9 hPa 0 mm - 733 W/m² -
1788450569 31.67° C 70% 1019.1 hPa 0 mm - 717 W/m² -
1788449966 31.67° C 70% 1019.2 hPa 0 mm - 137 W/m² -
1788449364 31.67° C 69% 1019.3 hPa 0 mm - 131 W/m² -
1788448761 31.11° C 72% 1019.3 hPa 0 mm - 114 W/m² -
1788448155 30.56° C 72% 1019.1 hPa 0 mm - 105 W/m² -
1788447551 30.56° C 74% 1019.3 hPa 0 mm - 100 W/m² -

* Rain latest hour (hover to see other rain measurements)
** Current wind speed in m/s (hover to see current wind gust speed)